createdAt,value
2019-01-29T00:00:01.737Z,800.85
2019-01-29T00:01:01.737Z,800.90
2019-01-29T00:02:01.744Z,800.93
2019-01-29T00:03:01.741Z,800.93
2019-01-29T00:04:01.742Z,800.90
2019-01-29T00:05:01.744Z,800.86
2019-01-29T00:06:01.743Z,800.83
2019-01-29T00:07:01.747Z,800.85
2019-01-29T00:08:01.748Z,800.87
2019-01-29T00:09:01.750Z,800.86
2019-01-29T00:10:01.762Z,800.88
2019-01-29T00:11:01.756Z,800.85
2019-01-29T00:12:01.754Z,800.85
2019-01-29T00:13:01.753Z,800.87
2019-01-29T00:14:01.753Z,800.87
2019-01-29T00:15:01.760Z,800.88
2019-01-29T00:16:01.757Z,800.92
2019-01-29T00:17:01.757Z,800.89
2019-01-29T00:18:01.765Z,800.88
2019-01-29T00:19:01.761Z,800.87
2019-01-29T00:20:01.761Z,800.84
2019-01-29T00:21:01.763Z,800.85
2019-01-29T00:22:01.764Z,800.81
2019-01-29T00:23:01.764Z,800.84
2019-01-29T00:24:01.767Z,800.85
2019-01-29T00:25:01.778Z,800.85
2019-01-29T00:26:01.768Z,800.81
2019-01-29T00:27:01.772Z,800.83
2019-01-29T00:28:01.770Z,800.84
2019-01-29T00:29:01.772Z,800.85
2019-01-29T00:30:01.774Z,800.87
2019-01-29T00:31:01.775Z,800.91
2019-01-29T00:32:01.779Z,800.93
2019-01-29T00:33:01.777Z,800.94
2019-01-29T00:34:01.778Z,800.95
2019-01-29T00:35:01.784Z,800.96
2019-01-29T00:36:01.781Z,800.96
2019-01-29T00:37:01.787Z,800.95
2019-01-29T00:38:01.784Z,800.94
2019-01-29T00:39:01.786Z,800.89
2019-01-29T00:40:01.792Z,800.98
2019-01-29T00:41:01.789Z,800.96
2019-01-29T00:42:01.791Z,800.96
2019-01-29T00:43:01.792Z,800.91
2019-01-29T00:44:01.789Z,800.92
2019-01-29T00:45:01.791Z,800.87
2019-01-29T00:46:01.796Z,800.86
2019-01-29T00:47:01.798Z,800.87
2019-01-29T00:48:01.798Z,800.84
2019-01-29T00:49:01.796Z,800.88
2019-01-29T00:50:01.798Z,800.90
2019-01-29T00:51:01.806Z,800.91
2019-01-29T00:52:01.802Z,800.88
2019-01-29T00:53:01.802Z,800.91
2019-01-29T00:54:01.804Z,800.87
2019-01-29T00:55:01.828Z,800.89
2019-01-29T00:56:01.819Z,800.84
2019-01-29T00:57:01.808Z,800.83
2019-01-29T00:58:01.810Z,800.84
2019-01-29T00:59:01.812Z,800.78
2019-01-29T01:00:01.811Z,800.79
2019-01-29T01:01:01.811Z,800.76
2019-01-29T01:02:01.811Z,800.79
2019-01-29T01:03:01.817Z,800.77
2019-01-29T01:04:01.817Z,800.74
2019-01-29T01:05:01.819Z,800.80
2019-01-29T01:06:01.817Z,800.76
2019-01-29T01:07:01.821Z,800.76
2019-01-29T01:08:01.820Z,800.78
2019-01-29T01:09:01.823Z,800.80
2019-01-29T01:10:01.826Z,800.80
2019-01-29T01:11:01.825Z,800.78
2019-01-29T01:12:01.826Z,800.81
2019-01-29T01:13:01.827Z,800.83
2019-01-29T01:14:01.827Z,800.87
2019-01-29T01:15:01.829Z,800.88
2019-01-29T01:16:01.828Z,800.90
2019-01-29T01:17:01.829Z,800.89
2019-01-29T01:18:01.832Z,800.93
2019-01-29T01:19:01.831Z,800.91
2019-01-29T01:20:01.833Z,800.97
2019-01-29T01:21:01.834Z,800.97
2019-01-29T01:22:01.836Z,801.01
2019-01-29T01:23:01.837Z,801.01
2019-01-29T01:24:01.838Z,801.03
2019-01-29T01:25:01.844Z,801.04
2019-01-29T01:26:01.840Z,801.03
2019-01-29T01:27:01.843Z,801.04
2019-01-29T01:28:01.843Z,801.07
2019-01-29T01:29:01.845Z,800.99
2019-01-29T01:30:01.848Z,801.02
2019-01-29T01:31:01.845Z,801.02
2019-01-29T01:32:01.845Z,801.03
2019-01-29T01:33:01.848Z,801.03
2019-01-29T01:34:01.850Z,801.07
2019-01-29T01:35:01.851Z,801.11
2019-01-29T01:36:01.852Z,801.14
2019-01-29T01:37:01.853Z,801.10
2019-01-29T01:38:01.852Z,801.13
2019-01-29T01:39:01.853Z,801.16
2019-01-29T01:40:01.862Z,801.16
2019-01-29T01:41:01.854Z,801.09
2019-01-29T01:42:01.857Z,801.16
2019-01-29T01:43:01.857Z,801.15
2019-01-29T01:44:01.860Z,801.14
2019-01-29T01:45:01.859Z,801.12
2019-01-29T01:46:01.858Z,801.14
2019-01-29T01:47:01.862Z,801.14
2019-01-29T01:48:01.863Z,801.12
2019-01-29T01:49:01.864Z,801.15
2019-01-29T01:50:01.867Z,801.16
2019-01-29T01:51:01.865Z,801.15
2019-01-29T01:52:01.864Z,801.15
2019-01-29T01:53:01.866Z,801.13
2019-01-29T01:54:01.869Z,801.12
2019-01-29T01:55:01.889Z,801.13
2019-01-29T01:56:01.871Z,801.14
2019-01-29T01:57:01.868Z,801.17
2019-01-29T01:58:01.870Z,801.14
2019-01-29T01:59:01.874Z,801.15
2019-01-29T02:00:01.874Z,801.13
2019-01-29T02:01:01.874Z,801.13
2019-01-29T02:02:01.876Z,801.10
2019-01-29T02:03:01.874Z,801.15
2019-01-29T02:04:01.875Z,801.17
2019-01-29T02:05:01.875Z,801.20
2019-01-29T02:06:01.877Z,801.24
2019-01-29T02:07:01.878Z,801.26
2019-01-29T02:08:01.879Z,801.25
2019-01-29T02:09:01.881Z,801.28
2019-01-29T02:10:01.882Z,801.26
2019-01-29T02:11:01.886Z,801.21
2019-01-29T02:12:01.882Z,801.23
2019-01-29T02:13:01.896Z,801.27
2019-01-29T02:14:01.890Z,801.26
2019-01-29T02:15:01.886Z,801.27
2019-01-29T02:16:01.887Z,801.25
2019-01-29T02:17:01.893Z,801.25
2019-01-29T02:18:01.891Z,801.23
2019-01-29T02:19:01.889Z,801.27
2019-01-29T02:20:01.892Z,801.21
2019-01-29T02:21:01.892Z,801.16
2019-01-29T02:22:01.896Z,801.20
2019-01-29T02:23:07.805Z,801.16
2019-01-29T02:24:01.893Z,801.23
2019-01-29T02:25:01.898Z,801.21
2019-01-29T02:26:01.896Z,801.26
2019-01-29T02:27:01.897Z,801.25
2019-01-29T02:28:01.897Z,801.22
2019-01-29T02:29:01.902Z,801.21
2019-01-29T02:30:01.900Z,801.22
2019-01-29T02:31:01.900Z,801.24
2019-01-29T02:32:01.901Z,801.30
2019-01-29T02:33:01.906Z,801.29
2019-01-29T02:34:01.905Z,801.31
2019-01-29T02:35:01.905Z,801.28
2019-01-29T02:36:01.906Z,801.33
2019-01-29T02:37:01.904Z,801.34
2019-01-29T02:38:01.911Z,801.34
2019-01-29T02:39:01.959Z,801.34
2019-01-29T02:40:01.977Z,801.35
2019-01-29T02:41:01.920Z,801.42
2019-01-29T02:42:01.909Z,801.36
2019-01-29T02:43:01.921Z,801.39
2019-01-29T02:44:01.909Z,801.39
2019-01-29T02:45:01.916Z,801.43
2019-01-29T02:46:01.911Z,801.43
2019-01-29T02:47:01.912Z,801.47
2019-01-29T02:48:01.916Z,801.44
2019-01-29T02:49:01.931Z,801.46
2019-01-29T02:50:01.925Z,801.45
2019-01-29T02:51:01.921Z,801.47
2019-01-29T02:52:01.917Z,801.44
2019-01-29T02:53:01.919Z,801.47
2019-01-29T02:54:01.919Z,801.50
2019-01-29T02:55:01.922Z,801.50
2019-01-29T02:56:01.922Z,801.51
2019-01-29T02:57:01.923Z,801.49
2019-01-29T02:58:01.924Z,801.53
2019-01-29T02:59:01.928Z,801.49
2019-01-29T03:00:01.927Z,801.49
2019-01-29T03:01:01.927Z,801.52
2019-01-29T03:02:01.925Z,801.48
2019-01-29T03:03:01.928Z,801.48
2019-01-29T03:04:01.926Z,801.46
2019-01-29T03:05:01.927Z,801.38
2019-01-29T03:06:01.931Z,801.44
2019-01-29T03:07:01.930Z,801.43
2019-01-29T03:08:01.975Z,801.45
2019-01-29T03:09:01.931Z,801.48
2019-01-29T03:10:01.935Z,801.47
2019-01-29T03:11:01.935Z,801.43
2019-01-29T03:12:01.937Z,801.47
2019-01-29T03:13:01.937Z,801.44
2019-01-29T03:14:01.935Z,801.47
2019-01-29T03:15:01.997Z,801.50
2019-01-29T03:16:01.940Z,801.48
2019-01-29T03:17:01.940Z,801.47
2019-01-29T03:18:01.941Z,801.49
2019-01-29T03:19:01.943Z,801.50
2019-01-29T03:20:01.941Z,801.50
2019-01-29T03:21:01.945Z,801.54
2019-01-29T03:22:01.952Z,801.53
2019-01-29T03:23:01.942Z,801.54
2019-01-29T03:24:01.944Z,801.54
2019-01-29T03:25:01.950Z,801.57
2019-01-29T03:26:01.947Z,801.55
2019-01-29T03:27:01.947Z,801.57
2019-01-29T03:28:01.944Z,801.54
2019-01-29T03:29:01.954Z,801.51
2019-01-29T03:30:02.027Z,801.50
2019-01-29T03:31:01.957Z,801.48
2019-01-29T03:32:01.953Z,801.50
2019-01-29T03:33:02.070Z,801.53
2019-01-29T03:34:01.948Z,801.49
2019-01-29T03:35:02.397Z,801.51
2019-01-29T03:36:01.949Z,801.49
2019-01-29T03:37:01.952Z,801.49
2019-01-29T03:38:01.956Z,801.51
2019-01-29T03:39:01.952Z,801.55
2019-01-29T03:40:01.956Z,801.58
2019-01-29T03:41:01.977Z,801.58
2019-01-29T03:42:01.955Z,801.58
2019-01-29T03:43:02.025Z,801.55
2019-01-29T03:44:01.954Z,801.55
2019-01-29T03:45:01.965Z,801.53
2019-01-29T03:46:01.957Z,801.58
2019-01-29T03:47:01.961Z,801.52
2019-01-29T03:48:01.959Z,801.54
2019-01-29T03:49:01.961Z,801.54
2019-01-29T03:50:01.958Z,801.58
2019-01-29T03:51:01.961Z,801.55
2019-01-29T03:52:01.960Z,801.55
2019-01-29T03:53:01.959Z,801.58
2019-01-29T03:54:01.960Z,801.54
2019-01-29T03:55:01.967Z,801.56
2019-01-29T03:56:01.970Z,801.58
2019-01-29T03:57:01.964Z,801.59
2019-01-29T03:58:01.961Z,801.63
2019-01-29T03:59:01.968Z,801.61
2019-01-29T04:00:01.964Z,801.62
2019-01-29T04:01:01.968Z,801.58
2019-01-29T04:02:01.968Z,801.59
2019-01-29T04:03:01.965Z,801.61
2019-01-29T04:04:01.977Z,801.63
2019-01-29T04:05:01.967Z,801.63
2019-01-29T04:06:01.965Z,801.59
2019-01-29T04:07:01.970Z,801.62
2019-01-29T04:08:01.968Z,801.62
2019-01-29T04:09:01.976Z,801.61
2019-01-29T04:10:01.969Z,801.63
2019-01-29T04:11:01.969Z,801.60
2019-01-29T04:12:01.977Z,801.60
2019-01-29T04:13:01.971Z,801.58
2019-01-29T04:14:01.971Z,801.59
2019-01-29T04:15:01.970Z,801.62
2019-01-29T04:16:01.974Z,801.62
2019-01-29T04:17:01.968Z,801.63
2019-01-29T04:18:01.986Z,801.66
2019-01-29T04:19:01.973Z,801.64
2019-01-29T04:20:01.972Z,801.67
2019-01-29T04:21:01.970Z,801.65
2019-01-29T04:22:01.971Z,801.65
2019-01-29T04:23:01.975Z,801.64
2019-01-29T04:24:01.969Z,801.63
2019-01-29T04:25:01.976Z,801.63
2019-01-29T04:26:01.970Z,801.66
2019-01-29T04:27:01.968Z,801.64
2019-01-29T04:28:02.036Z,801.65
2019-01-29T04:29:01.969Z,801.68
2019-01-29T04:30:01.967Z,801.67
2019-01-29T04:31:01.969Z,801.68
2019-01-29T04:32:01.967Z,801.71
2019-01-29T04:33:01.969Z,801.69
2019-01-29T04:34:01.970Z,801.70
2019-01-29T04:35:01.968Z,801.74
2019-01-29T04:36:01.964Z,801.71
2019-01-29T04:37:01.967Z,801.68
2019-01-29T04:38:01.967Z,801.72
2019-01-29T04:39:01.965Z,801.70
2019-01-29T04:40:01.963Z,801.67
2019-01-29T04:41:01.963Z,801.72
2019-01-29T04:42:01.965Z,801.72
2019-01-29T04:43:01.965Z,801.75
2019-01-29T04:44:02.031Z,801.71
2019-01-29T04:45:02.012Z,801.71
2019-01-29T04:46:01.966Z,801.71
2019-01-29T04:47:01.982Z,801.66
2019-01-29T04:48:01.964Z,801.69
2019-01-29T04:49:01.962Z,801.63
2019-01-29T04:50:01.962Z,801.67
2019-01-29T04:51:01.963Z,801.67
2019-01-29T04:52:01.963Z,801.71
2019-01-29T04:53:01.960Z,801.69
2019-01-29T04:54:01.967Z,801.70
2019-01-29T04:55:01.967Z,801.71
2019-01-29T04:56:01.964Z,801.68
2019-01-29T04:57:01.969Z,801.70
2019-01-29T04:58:01.962Z,801.65
2019-01-29T04:59:01.963Z,801.67
2019-01-29T05:00:01.960Z,801.67
2019-01-29T05:01:01.960Z,801.68
2019-01-29T05:02:01.963Z,801.65
2019-01-29T05:03:01.965Z,801.67
2019-01-29T05:04:01.963Z,801.72
2019-01-29T05:05:01.963Z,801.69
2019-01-29T05:06:01.963Z,801.71
2019-01-29T05:07:01.978Z,801.72
2019-01-29T05:08:01.961Z,801.70
2019-01-29T05:09:01.962Z,801.70
2019-01-29T05:10:01.967Z,801.68
2019-01-29T05:11:01.964Z,801.70
2019-01-29T05:12:01.964Z,801.68
2019-01-29T05:13:01.962Z,801.73
2019-01-29T05:14:01.963Z,801.74
2019-01-29T05:15:01.965Z,801.70
2019-01-29T05:16:01.963Z,801.73
2019-01-29T05:17:01.964Z,801.73
2019-01-29T05:18:01.967Z,801.73
2019-01-29T05:19:01.964Z,801.74
2019-01-29T05:20:01.963Z,801.75
2019-01-29T05:21:01.964Z,801.71
2019-01-29T05:22:01.967Z,801.71
2019-01-29T05:23:01.972Z,801.70
2019-01-29T05:24:07.049Z,801.72
2019-01-29T05:25:01.975Z,801.79
2019-01-29T05:26:01.969Z,801.77
2019-01-29T05:27:01.968Z,801.75
2019-01-29T05:28:01.964Z,801.75
2019-01-29T05:29:01.966Z,801.72
2019-01-29T05:30:01.967Z,801.74
2019-01-29T05:31:01.966Z,801.74
2019-01-29T05:32:01.966Z,801.73
2019-01-29T05:33:01.971Z,801.75
2019-01-29T05:34:01.969Z,801.75
2019-01-29T05:35:01.972Z,801.74
2019-01-29T05:36:01.971Z,801.72
2019-01-29T05:37:01.973Z,801.71
2019-01-29T05:38:04.073Z,801.73
2019-01-29T05:39:01.970Z,801.76
2019-01-29T05:40:02.003Z,801.79
2019-01-29T05:41:01.971Z,801.79
2019-01-29T05:42:01.973Z,801.78
2019-01-29T05:43:01.973Z,801.79
2019-01-29T05:44:01.970Z,801.78
2019-01-29T05:45:01.972Z,801.81
2019-01-29T05:46:01.970Z,801.78
2019-01-29T05:47:01.971Z,801.80
2019-01-29T05:48:01.992Z,801.75
2019-01-29T05:49:01.973Z,801.71
2019-01-29T05:50:02.005Z,801.72
2019-01-29T05:51:01.971Z,801.76
2019-01-29T05:52:01.973Z,801.77
2019-01-29T05:53:01.977Z,801.74
2019-01-29T05:54:01.975Z,801.72
2019-01-29T05:55:01.977Z,801.75
2019-01-29T05:56:01.975Z,801.76
2019-01-29T05:57:01.980Z,801.76
2019-01-29T05:58:02.101Z,801.69
2019-01-29T05:59:01.973Z,801.74
2019-01-29T06:00:01.978Z,801.76
2019-01-29T06:01:01.973Z,801.75
2019-01-29T06:02:01.977Z,801.82
2019-01-29T06:03:01.978Z,801.76
2019-01-29T06:04:01.980Z,801.73
2019-01-29T06:05:01.980Z,801.74
2019-01-29T06:06:01.974Z,801.73
2019-01-29T06:07:01.977Z,801.69
2019-01-29T06:08:01.974Z,801.71
2019-01-29T06:09:01.974Z,801.70
2019-01-29T06:10:01.975Z,801.69
2019-01-29T06:11:01.978Z,801.72
2019-01-29T06:12:01.977Z,801.77
2019-01-29T06:13:01.980Z,801.73
2019-01-29T06:14:01.978Z,801.77
2019-01-29T06:15:01.975Z,801.75
2019-01-29T06:16:01.980Z,801.72
2019-01-29T06:17:01.977Z,801.68
2019-01-29T06:18:01.976Z,801.66
2019-01-29T06:19:01.980Z,801.68
2019-01-29T06:20:01.976Z,801.63
2019-01-29T06:21:01.976Z,801.60
2019-01-29T06:22:01.975Z,801.65
2019-01-29T06:23:01.990Z,801.66
2019-01-29T06:24:01.975Z,801.64
2019-01-29T06:25:02.051Z,801.66
2019-01-29T06:26:01.975Z,801.62
2019-01-29T06:27:01.977Z,801.64
2019-01-29T06:28:01.976Z,801.64
2019-01-29T06:29:01.974Z,801.65
2019-01-29T06:30:01.979Z,801.70
2019-01-29T06:31:01.977Z,801.69
2019-01-29T06:32:01.975Z,801.74
2019-01-29T06:33:01.978Z,801.68
2019-01-29T06:34:01.983Z,801.70
2019-01-29T06:35:01.983Z,801.69
2019-01-29T06:36:01.978Z,801.76
2019-01-29T06:37:01.979Z,801.70
2019-01-29T06:38:01.975Z,801.67
2019-01-29T06:39:01.976Z,801.68
2019-01-29T06:40:01.977Z,801.70
2019-01-29T06:41:01.975Z,801.66
2019-01-29T06:42:01.977Z,801.72
2019-01-29T06:43:01.977Z,801.68
2019-01-29T06:44:01.977Z,801.67
2019-01-29T06:45:01.977Z,801.67
2019-01-29T06:46:01.976Z,801.64
2019-01-29T06:47:01.977Z,801.66
2019-01-29T06:48:01.981Z,801.66
2019-01-29T06:49:01.985Z,801.68
2019-01-29T06:50:01.987Z,801.66
2019-01-29T06:51:01.977Z,801.67
2019-01-29T06:52:01.979Z,801.62
2019-01-29T06:53:01.988Z,801.63
2019-01-29T06:54:01.978Z,801.62
2019-01-29T06:55:01.980Z,801.61
2019-01-29T06:56:01.978Z,801.61
2019-01-29T06:57:01.977Z,801.62
2019-01-29T06:58:01.983Z,801.64
2019-01-29T06:59:01.978Z,801.59
2019-01-29T07:00:01.994Z,801.59
2019-01-29T07:01:01.980Z,801.63
2019-01-29T07:02:01.977Z,801.61
2019-01-29T07:03:01.979Z,801.65
2019-01-29T07:04:01.977Z,801.66
2019-01-29T07:05:01.986Z,801.63
2019-01-29T07:06:01.985Z,801.63
2019-01-29T07:07:01.980Z,801.63
2019-01-29T07:08:01.977Z,801.61
2019-01-29T07:09:01.981Z,801.65
2019-01-29T07:10:01.979Z,801.67
2019-01-29T07:11:01.982Z,801.64
2019-01-29T07:12:01.979Z,801.66
2019-01-29T07:13:01.978Z,801.64
2019-01-29T07:14:01.979Z,801.63
2019-01-29T07:15:01.982Z,801.66
2019-01-29T07:16:01.980Z,801.64
2019-01-29T07:17:01.977Z,801.65
2019-01-29T07:18:01.981Z,801.66
2019-01-29T07:19:01.978Z,801.64
2019-01-29T07:20:01.980Z,801.66
2019-01-29T07:21:01.977Z,801.66
2019-01-29T07:22:01.981Z,801.65
2019-01-29T07:23:01.982Z,801.66
2019-01-29T07:24:01.983Z,801.66
2019-01-29T07:25:01.978Z,801.63
2019-01-29T07:26:01.989Z,801.64
2019-01-29T07:27:01.983Z,801.66
2019-01-29T07:28:01.978Z,801.61
2019-01-29T07:29:01.983Z,801.65
2019-01-29T07:30:01.981Z,801.64
2019-01-29T07:31:01.978Z,801.55
2019-01-29T07:32:01.979Z,801.59
2019-01-29T07:33:01.988Z,801.58
2019-01-29T07:34:01.982Z,801.58
2019-01-29T07:35:01.984Z,801.56
2019-01-29T07:36:01.981Z,801.57
2019-01-29T07:37:01.979Z,801.59
2019-01-29T07:38:01.983Z,801.57
2019-01-29T07:39:01.981Z,801.59
2019-01-29T07:40:01.978Z,801.56
2019-01-29T07:41:01.980Z,801.58
2019-01-29T07:42:01.980Z,801.55
2019-01-29T07:43:01.984Z,801.58
2019-01-29T07:44:01.983Z,801.55
2019-01-29T07:45:01.981Z,801.54
2019-01-29T07:46:01.986Z,801.52
2019-01-29T07:47:02.036Z,801.58
2019-01-29T07:48:01.985Z,801.54
2019-01-29T07:49:01.985Z,801.59
2019-01-29T07:50:02.010Z,801.58
2019-01-29T07:51:01.982Z,801.61
2019-01-29T07:52:01.985Z,801.58
2019-01-29T07:53:01.984Z,801.59
2019-01-29T07:54:01.983Z,801.65
2019-01-29T07:55:01.991Z,801.69
2019-01-29T07:56:01.983Z,801.69
2019-01-29T07:57:01.982Z,801.70
2019-01-29T07:58:01.986Z,801.69
2019-01-29T07:59:01.983Z,801.63
2019-01-29T08:00:01.986Z,801.67
2019-01-29T08:01:01.984Z,801.66
2019-01-29T08:02:01.983Z,801.66
2019-01-29T08:03:01.983Z,801.67
2019-01-29T08:04:01.982Z,801.66
2019-01-29T08:05:01.984Z,801.68
2019-01-29T08:06:01.985Z,801.67
2019-01-29T08:07:01.989Z,801.66
2019-01-29T08:08:01.984Z,801.66
2019-01-29T08:09:01.987Z,801.66
2019-01-29T08:10:01.984Z,801.61
2019-01-29T08:11:01.989Z,801.64
2019-01-29T08:12:01.992Z,801.63
2019-01-29T08:13:01.987Z,801.68
2019-01-29T08:14:01.984Z,801.68
2019-01-29T08:15:01.984Z,801.68
2019-01-29T08:16:01.987Z,801.69
2019-01-29T08:17:01.987Z,801.67
2019-01-29T08:18:01.986Z,801.69
2019-01-29T08:19:01.983Z,801.69
2019-01-29T08:20:01.987Z,801.70
2019-01-29T08:21:01.982Z,801.68
2019-01-29T08:22:01.986Z,801.68
2019-01-29T08:23:01.983Z,801.74
2019-01-29T08:24:01.984Z,801.72
2019-01-29T08:25:02.349Z,801.70
2019-01-29T08:26:01.982Z,801.69
2019-01-29T08:27:01.983Z,801.69
2019-01-29T08:28:01.981Z,801.68
2019-01-29T08:29:01.984Z,801.71
2019-01-29T08:30:01.992Z,801.70
2019-01-29T08:31:01.982Z,801.67
2019-01-29T08:32:01.981Z,801.66
2019-01-29T08:33:01.985Z,801.65
2019-01-29T08:34:01.982Z,801.67
2019-01-29T08:35:01.984Z,801.64
2019-01-29T08:36:01.985Z,801.64
2019-01-29T08:37:01.983Z,801.62
2019-01-29T08:38:01.983Z,801.62
2019-01-29T08:39:01.981Z,801.67
2019-01-29T08:40:01.987Z,801.61
2019-01-29T08:41:01.982Z,801.61
2019-01-29T08:42:01.982Z,801.59
2019-01-29T08:43:01.984Z,801.57
2019-01-29T08:44:01.983Z,801.59
2019-01-29T08:45:01.996Z,801.59
2019-01-29T08:46:01.986Z,801.56
2019-01-29T08:47:01.988Z,801.59
2019-01-29T08:48:01.992Z,801.58
2019-01-29T08:49:01.987Z,801.54
2019-01-29T08:50:01.988Z,801.54
2019-01-29T08:51:03.718Z,801.54
2019-01-29T08:52:01.995Z,801.53
2019-01-29T08:53:01.999Z,801.47
2019-01-29T08:54:01.992Z,801.49
2019-01-29T08:55:10.265Z,801.49
2019-01-29T08:56:01.995Z,801.44
2019-01-29T08:57:01.995Z,801.47
2019-01-29T08:58:02.001Z,801.46
2019-01-29T08:59:02.002Z,801.44
2019-01-29T09:00:02.004Z,801.45
2019-01-29T09:01:01.999Z,801.46
2019-01-29T09:02:02.004Z,801.46
2019-01-29T09:03:02.051Z,801.45
2019-01-29T09:04:02.005Z,801.46
2019-01-29T09:05:02.007Z,801.43
2019-01-29T09:06:02.008Z,801.43
2019-01-29T09:07:02.010Z,801.42
2019-01-29T09:08:02.013Z,801.43
2019-01-29T09:09:02.009Z,801.42
2019-01-29T09:10:02.018Z,801.43
2019-01-29T09:11:02.015Z,801.40
2019-01-29T09:12:02.016Z,801.40
2019-01-29T09:13:02.019Z,801.39
2019-01-29T09:14:02.020Z,801.44
2019-01-29T09:15:02.027Z,801.45
2019-01-29T09:16:02.019Z,801.44
2019-01-29T09:17:02.022Z,801.44
2019-01-29T09:18:02.025Z,801.42
2019-01-29T09:19:02.027Z,801.40
2019-01-29T09:20:03.242Z,801.40
2019-01-29T09:21:02.031Z,801.36
2019-01-29T09:22:02.032Z,801.36
2019-01-29T09:23:02.109Z,801.35
2019-01-29T09:24:02.032Z,801.29
2019-01-29T09:25:02.034Z,801.29
2019-01-29T09:26:02.037Z,801.35
2019-01-29T09:27:02.049Z,801.35
2019-01-29T09:28:02.115Z,801.37
2019-01-29T09:29:02.042Z,801.39
2019-01-29T09:30:02.053Z,801.40
2019-01-29T09:31:02.047Z,801.34
2019-01-29T09:32:02.045Z,801.39
2019-01-29T09:33:02.053Z,801.37
2019-01-29T09:34:02.056Z,801.36
2019-01-29T09:35:02.053Z,801.34
2019-01-29T09:36:02.056Z,801.36
2019-01-29T09:37:02.059Z,801.30
2019-01-29T09:38:02.058Z,801.31
2019-01-29T09:39:02.060Z,801.31
2019-01-29T09:40:02.064Z,801.30
2019-01-29T09:41:02.064Z,801.33
2019-01-29T09:42:02.065Z,801.27
2019-01-29T09:43:02.066Z,801.27
2019-01-29T09:44:02.067Z,801.24
2019-01-29T09:45:02.077Z,801.25
2019-01-29T09:46:02.071Z,801.28
2019-01-29T09:47:02.078Z,801.24
2019-01-29T09:48:02.075Z,801.23
2019-01-29T09:49:02.082Z,801.21
2019-01-29T09:50:02.081Z,801.25
2019-01-29T09:51:02.083Z,801.22
2019-01-29T09:52:02.088Z,801.23
2019-01-29T09:53:02.091Z,801.25
2019-01-29T09:54:02.094Z,801.20
2019-01-29T09:55:02.098Z,801.19
2019-01-29T09:56:02.101Z,801.22
2019-01-29T09:57:02.100Z,801.25
2019-01-29T09:58:02.103Z,801.22
2019-01-29T09:59:02.111Z,801.26
2019-01-29T10:00:02.114Z,801.26
2019-01-29T10:01:02.112Z,801.25
2019-01-29T10:02:02.114Z,801.23
2019-01-29T10:03:02.119Z,801.23
2019-01-29T10:04:02.132Z,801.22
2019-01-29T10:05:02.125Z,801.18
2019-01-29T10:06:02.125Z,801.15
2019-01-29T10:07:02.132Z,801.14
2019-01-29T10:08:02.138Z,801.15
2019-01-29T10:09:02.134Z,801.16
2019-01-29T10:10:02.140Z,801.13
2019-01-29T10:11:02.140Z,801.15
2019-01-29T10:12:02.142Z,801.12
2019-01-29T10:13:02.147Z,801.12
2019-01-29T10:14:02.148Z,801.08
2019-01-29T10:15:02.152Z,801.09
2019-01-29T10:16:02.154Z,801.13
2019-01-29T10:17:02.161Z,801.10
2019-01-29T10:18:02.165Z,801.10
2019-01-29T10:19:02.165Z,801.08
2019-01-29T10:20:03.058Z,801.09
2019-01-29T10:21:02.173Z,801.05
2019-01-29T10:22:02.183Z,801.07
2019-01-29T10:23:02.181Z,801.12
2019-01-29T10:24:02.188Z,801.07
2019-01-29T10:25:02.195Z,801.07
2019-01-29T10:26:02.195Z,801.05
2019-01-29T10:27:02.205Z,801.09
2019-01-29T10:28:02.205Z,801.06
2019-01-29T10:29:02.210Z,801.03
2019-01-29T10:30:02.213Z,800.96
2019-01-29T10:31:02.224Z,801.00
2019-01-29T10:32:02.220Z,800.95
2019-01-29T10:33:02.228Z,800.93
2019-01-29T10:34:02.232Z,800.93
2019-01-29T10:35:02.235Z,800.95
2019-01-29T10:36:02.243Z,800.91
2019-01-29T10:37:02.245Z,800.90
2019-01-29T10:38:02.248Z,800.87
2019-01-29T10:39:02.258Z,800.88
2019-01-29T10:40:02.258Z,800.83
2019-01-29T10:41:02.264Z,800.78
2019-01-29T10:42:02.276Z,800.79
2019-01-29T10:43:02.276Z,800.72
2019-01-29T10:44:02.282Z,800.69
2019-01-29T10:45:02.285Z,800.66
2019-01-29T10:46:02.294Z,800.67
2019-01-29T10:47:02.300Z,800.62
2019-01-29T10:48:02.304Z,800.67
2019-01-29T10:49:02.308Z,800.62
2019-01-29T10:50:02.314Z,800.62
2019-01-29T10:51:02.320Z,800.56
2019-01-29T10:52:02.325Z,800.55
2019-01-29T10:53:02.328Z,800.46
2019-01-29T10:54:02.339Z,800.48
2019-01-29T10:55:02.346Z,800.50
2019-01-29T10:56:02.346Z,800.47
2019-01-29T10:57:02.351Z,800.51
2019-01-29T10:58:02.359Z,800.46
2019-01-29T10:59:02.362Z,800.47
2019-01-29T11:00:02.367Z,800.40
2019-01-29T11:01:02.376Z,800.37
2019-01-29T11:02:02.380Z,800.32
2019-01-29T11:03:02.384Z,800.37
2019-01-29T11:04:02.389Z,800.32
2019-01-29T11:05:02.397Z,800.33
2019-01-29T11:06:02.403Z,800.27
2019-01-29T11:07:02.405Z,800.28
2019-01-29T11:08:02.417Z,800.23
2019-01-29T11:09:02.487Z,800.24
2019-01-29T11:10:02.422Z,800.18
2019-01-29T11:11:02.427Z,800.17
2019-01-29T11:12:02.435Z,800.16
2019-01-29T11:13:02.440Z,800.14
2019-01-29T11:14:02.443Z,800.12
2019-01-29T11:15:02.449Z,800.11
2019-01-29T11:16:02.454Z,800.09
2019-01-29T11:17:02.460Z,800.07
2019-01-29T11:18:02.467Z,800.03
2019-01-29T11:19:03.471Z,800.05
2019-01-29T11:20:02.477Z,800.08
2019-01-29T11:21:02.501Z,799.98
2019-01-29T11:22:02.487Z,800.02
2019-01-29T11:23:02.492Z,800.02
2019-01-29T11:24:02.498Z,799.91
2019-01-29T11:25:02.507Z,799.96
2019-01-29T11:26:02.515Z,799.89
2019-01-29T11:27:02.514Z,799.91
2019-01-29T11:28:02.521Z,799.94
2019-01-29T11:29:02.530Z,799.92
2019-01-29T11:30:02.537Z,799.88
2019-01-29T11:31:02.539Z,799.87
2019-01-29T11:32:02.542Z,799.86
2019-01-29T11:33:02.550Z,799.85
2019-01-29T11:34:02.556Z,799.81
2019-01-29T11:35:02.559Z,799.81
2019-01-29T11:36:02.564Z,799.77
2019-01-29T11:37:02.571Z,799.79
2019-01-29T11:38:02.578Z,799.78
2019-01-29T11:39:02.582Z,799.76
2019-01-29T11:40:02.587Z,799.75
2019-01-29T11:41:02.594Z,799.77
2019-01-29T11:42:02.600Z,799.75
2019-01-29T11:43:02.606Z,799.77
2019-01-29T11:44:02.611Z,799.73
2019-01-29T11:45:02.621Z,799.78
2019-01-29T11:46:02.623Z,799.73
2019-01-29T11:47:02.627Z,799.73
2019-01-29T11:48:02.636Z,799.70
2019-01-29T11:49:02.865Z,799.71
2019-01-29T11:50:02.656Z,799.74
2019-01-29T11:51:02.653Z,799.78
2019-01-29T11:52:02.657Z,799.75
2019-01-29T11:53:02.664Z,799.69
2019-01-29T11:54:02.668Z,799.74
2019-01-29T11:55:02.680Z,799.74
2019-01-29T11:56:04.829Z,799.69
2019-01-29T11:57:02.688Z,799.73
2019-01-29T11:58:02.704Z,799.72
2019-01-29T11:59:02.703Z,799.71
2019-01-29T12:00:02.710Z,799.70
2019-01-29T12:01:04.580Z,799.67
2019-01-29T12:02:02.720Z,799.65
2019-01-29T12:03:02.742Z,799.62
2019-01-29T12:04:02.732Z,799.65
2019-01-29T12:05:02.738Z,799.64
2019-01-29T12:06:02.748Z,799.59
2019-01-29T12:07:02.755Z,799.59
2019-01-29T12:08:02.766Z,799.55
2019-01-29T12:09:02.764Z,799.50
2019-01-29T12:10:02.773Z,799.51
2019-01-29T12:11:02.779Z,799.49
2019-01-29T12:12:02.787Z,799.52
2019-01-29T12:13:02.794Z,799.49
2019-01-29T12:14:02.800Z,799.45
2019-01-29T12:15:02.801Z,799.47
2019-01-29T12:16:02.811Z,799.41
2019-01-29T12:17:02.817Z,799.42
2019-01-29T12:18:02.830Z,799.44
2019-01-29T12:19:02.827Z,799.41
2019-01-29T12:20:02.836Z,799.42
2019-01-29T12:21:02.842Z,799.44
2019-01-29T12:22:02.847Z,799.42
2019-01-29T12:23:02.856Z,799.37
2019-01-29T12:24:02.857Z,799.40
2019-01-29T12:25:02.866Z,799.42
2019-01-29T12:26:02.868Z,799.37
2019-01-29T12:27:02.879Z,799.38
2019-01-29T12:28:02.886Z,799.38